sensor_id;sensor_type;location;lat;lon;timestamp;P1;durP1;ratioP1;P2;durP2;ratioP2
71162;SDS011;58858;50.948;6.566;2023-02-18T00:08:38;11.65;;;7.07;;
71162;SDS011;58858;50.948;6.566;2023-02-18T00:18:41;7.63;;;5.72;;
71162;SDS011;58858;50.948;6.566;2023-02-18T00:28:43;8.48;;;6.57;;
71162;SDS011;58858;50.948;6.566;2023-02-18T00:38:45;8.65;;;6.38;;
71162;SDS011;58858;50.948;6.566;2023-02-18T00:48:46;6.80;;;4.68;;
71162;SDS011;58858;50.948;6.566;2023-02-18T00:58:50;5.47;;;4.10;;
71162;SDS011;58858;50.948;6.566;2023-02-18T01:08:52;4.07;;;3.50;;
71162;SDS011;58858;50.948;6.566;2023-02-18T01:18:53;6.10;;;3.65;;
71162;SDS011;58858;50.948;6.566;2023-02-18T01:28:54;4.82;;;4.13;;
71162;SDS011;58858;50.948;6.566;2023-02-18T01:38:55;6.32;;;4.53;;
71162;SDS011;58858;50.948;6.566;2023-02-18T01:48:57;6.30;;;3.95;;
71162;SDS011;58858;50.948;6.566;2023-02-18T01:59:01;6.10;;;4.43;;
71162;SDS011;58858;50.948;6.566;2023-02-18T02:09:05;6.97;;;4.88;;
71162;SDS011;58858;50.948;6.566;2023-02-18T02:29:21;8.98;;;6.65;;
71162;SDS011;58858;50.948;6.566;2023-02-18T03:00:11;6.53;;;5.53;;
71162;SDS011;58858;50.948;6.566;2023-02-18T03:10:36;4.65;;;3.78;;
71162;SDS011;58858;50.948;6.566;2023-02-18T03:20:54;4.65;;;3.45;;
71162;SDS011;58858;50.948;6.566;2023-02-18T03:31:04;3.22;;;2.42;;
71162;SDS011;58858;50.948;6.566;2023-02-18T03:41:10;3.63;;;2.15;;
71162;SDS011;58858;50.948;6.566;2023-02-18T03:51:12;1.23;;;1.13;;
71162;SDS011;58858;50.948;6.566;2023-02-18T04:01:13;1.20;;;0.88;;
71162;SDS011;58858;50.948;6.566;2023-02-18T04:11:14;0.90;;;0.60;;
71162;SDS011;58858;50.948;6.566;2023-02-18T04:21:15;0.65;;;0.60;;
71162;SDS011;58858;50.948;6.566;2023-02-18T04:31:16;1.15;;;0.90;;
71162;SDS011;58858;50.948;6.566;2023-02-18T04:41:17;1.27;;;0.95;;
71162;SDS011;58858;50.948;6.566;2023-02-18T04:51:18;1.13;;;1.02;;
71162;SDS011;58858;50.948;6.566;2023-02-18T05:01:22;1.88;;;1.67;;
71162;SDS011;58858;50.948;6.566;2023-02-18T05:11:23;2.58;;;2.15;;
71162;SDS011;58858;50.948;6.566;2023-02-18T05:21:24;3.55;;;2.45;;
71162;SDS011;58858;50.948;6.566;2023-02-18T05:31:25;2.55;;;1.52;;
71162;SDS011;58858;50.948;6.566;2023-02-18T05:41:26;3.25;;;1.45;;
71162;SDS011;58858;50.948;6.566;2023-02-18T05:51:27;2.10;;;1.52;;
71162;SDS011;58858;50.948;6.566;2023-02-18T06:01:28;1.20;;;1.10;;
71162;SDS011;58858;50.948;6.566;2023-02-18T06:11:29;1.10;;;1.00;;
71162;SDS011;58858;50.948;6.566;2023-02-18T06:21:31;1.42;;;0.95;;
71162;SDS011;58858;50.948;6.566;2023-02-18T06:31:32;0.45;;;0.45;;
71162;SDS011;58858;50.948;6.566;2023-02-18T06:41:33;2.45;;;0.63;;
71162;SDS011;58858;50.948;6.566;2023-02-18T06:51:34;0.47;;;0.40;;
71162;SDS011;58858;50.948;6.566;2023-02-18T07:01:35;0.68;;;0.50;;
71162;SDS011;58858;50.948;6.566;2023-02-18T07:11:36;0.70;;;0.70;;
71162;SDS011;58858;50.948;6.566;2023-02-18T07:21:37;1.63;;;0.70;;
71162;SDS011;58858;50.948;6.566;2023-02-18T07:31:39;0.93;;;0.50;;
71162;SDS011;58858;50.948;6.566;2023-02-18T07:41:40;0.80;;;0.80;;
71162;SDS011;58858;50.948;6.566;2023-02-18T07:51:49;1.58;;;1.23;;
71162;SDS011;58858;50.948;6.566;2023-02-18T08:01:50;6.53;;;2.05;;
71162;SDS011;58858;50.948;6.566;2023-02-18T08:11:51;4.40;;;1.98;;
71162;SDS011;58858;50.948;6.566;2023-02-18T08:21:52;7.00;;;1.80;;
71162;SDS011;58858;50.948;6.566;2023-02-18T08:31:53;11.23;;;2.03;;
71162;SDS011;58858;50.948;6.566;2023-02-18T08:41:56;6.43;;;2.65;;
71162;SDS011;58858;50.948;6.566;2023-02-18T08:51:57;4.70;;;2.20;;
71162;SDS011;58858;50.948;6.566;2023-02-18T09:01:58;5.82;;;2.28;;
71162;SDS011;58858;50.948;6.566;2023-02-18T09:11:59;7.95;;;2.42;;
71162;SDS011;58858;50.948;6.566;2023-02-18T09:22:01;7.50;;;1.85;;
71162;SDS011;58858;50.948;6.566;2023-02-18T09:32:02;6.35;;;2.30;;
71162;SDS011;58858;50.948;6.566;2023-02-18T09:42:04;5.28;;;2.08;;
71162;SDS011;58858;50.948;6.566;2023-02-18T09:52:11;11.52;;;2.88;;
71162;SDS011;58858;50.948;6.566;2023-02-18T10:02:15;6.78;;;2.40;;
71162;SDS011;58858;50.948;6.566;2023-02-18T10:12:17;7.82;;;2.67;;
71162;SDS011;58858;50.948;6.566;2023-02-18T10:22:20;10.05;;;2.45;;
71162;SDS011;58858;50.948;6.566;2023-02-18T10:32:23;5.57;;;1.77;;
71162;SDS011;58858;50.948;6.566;2023-02-18T10:42:30;10.80;;;1.88;;
71162;SDS011;58858;50.948;6.566;2023-02-18T10:52:40;3.65;;;1.92;;
71162;SDS011;58858;50.948;6.566;2023-02-18T11:02:44;5.68;;;1.83;;
71162;SDS011;58858;50.948;6.566;2023-02-18T11:12:56;2.33;;;1.40;;
71162;SDS011;58858;50.948;6.566;2023-02-18T11:33:08;1.80;;;1.20;;
71162;SDS011;58858;50.948;6.566;2023-02-18T11:43:15;1.90;;;1.40;;
71162;SDS011;58858;50.948;6.566;2023-02-18T11:53:28;2.05;;;1.60;;
71162;SDS011;58858;50.948;6.566;2023-02-18T12:03:37;5.13;;;2.42;;
71162;SDS011;58858;50.948;6.566;2023-02-18T12:13:52;3.20;;;1.98;;
71162;SDS011;58858;50.948;6.566;2023-02-18T12:24:00;4.60;;;1.52;;
71162;SDS011;58858;50.948;6.566;2023-02-18T13:15:35;3.83;;;1.90;;
71162;SDS011;58858;50.948;6.566;2023-02-18T13:25:38;1.60;;;0.98;;
71162;SDS011;58858;50.948;6.566;2023-02-18T13:35:42;1.75;;;1.08;;
71162;SDS011;58858;50.948;6.566;2023-02-18T13:46:07;1.45;;;0.80;;
71162;SDS011;58858;50.948;6.566;2023-02-18T14:06:27;2.53;;;1.08;;
71162;SDS011;58858;50.948;6.566;2023-02-18T14:17:11;6.57;;;2.05;;
71162;SDS011;58858;50.948;6.566;2023-02-18T14:27:15;2.47;;;1.38;;
71162;SDS011;58858;50.948;6.566;2023-02-18T14:58:13;4.70;;;1.30;;
71162;SDS011;58858;50.948;6.566;2023-02-18T15:08:35;2.35;;;1.13;;
71162;SDS011;58858;50.948;6.566;2023-02-18T15:18:52;1.48;;;1.38;;
71162;SDS011;58858;50.948;6.566;2023-02-18T15:28:59;2.42;;;1.23;;
71162;SDS011;58858;50.948;6.566;2023-02-18T15:39:01;2.47;;;1.13;;
71162;SDS011;58858;50.948;6.566;2023-02-18T15:49:03;2.15;;;1.52;;
71162;SDS011;58858;50.948;6.566;2023-02-18T16:09:12;2.90;;;1.20;;
71162;SDS011;58858;50.948;6.566;2023-02-18T16:19:22;1.77;;;1.30;;
71162;SDS011;58858;50.948;6.566;2023-02-18T16:29:25;2.22;;;1.40;;
71162;SDS011;58858;50.948;6.566;2023-02-18T16:39:32;2.08;;;1.85;;
71162;SDS011;58858;50.948;6.566;2023-02-18T16:49:34;4.13;;;2.45;;
71162;SDS011;58858;50.948;6.566;2023-02-18T16:59:35;4.88;;;2.72;;
71162;SDS011;58858;50.948;6.566;2023-02-18T17:09:36;3.47;;;2.40;;
71162;SDS011;58858;50.948;6.566;2023-02-18T17:19:37;4.57;;;2.95;;
71162;SDS011;58858;50.948;6.566;2023-02-18T17:29:38;3.50;;;2.90;;
71162;SDS011;58858;50.948;6.566;2023-02-18T17:39:39;4.18;;;3.05;;
71162;SDS011;58858;50.948;6.566;2023-02-18T17:49:40;5.28;;;3.70;;
71162;SDS011;58858;50.948;6.566;2023-02-18T17:59:41;5.82;;;3.22;;
71162;SDS011;58858;50.948;6.566;2023-02-18T18:09:42;6.38;;;3.42;;
71162;SDS011;58858;50.948;6.566;2023-02-18T18:19:44;3.80;;;2.97;;
71162;SDS011;58858;50.948;6.566;2023-02-18T18:29:45;4.45;;;3.63;;
71162;SDS011;58858;50.948;6.566;2023-02-18T18:39:46;5.10;;;3.85;;
71162;SDS011;58858;50.948;6.566;2023-02-18T18:49:47;5.90;;;3.88;;
71162;SDS011;58858;50.948;6.566;2023-02-18T18:59:48;6.10;;;3.63;;
71162;SDS011;58858;50.948;6.566;2023-02-18T19:09:50;7.00;;;4.10;;
71162;SDS011;58858;50.948;6.566;2023-02-18T19:19:51;4.10;;;3.10;;
71162;SDS011;58858;50.948;6.566;2023-02-18T19:29:52;10.00;;;5.47;;
71162;SDS011;58858;50.948;6.566;2023-02-18T19:39:54;6.30;;;4.50;;
71162;SDS011;58858;50.948;6.566;2023-02-18T19:49:56;5.10;;;4.28;;
71162;SDS011;58858;50.948;6.566;2023-02-18T19:59:58;6.13;;;4.28;;
71162;SDS011;58858;50.948;6.566;2023-02-18T20:09:59;5.43;;;4.25;;
71162;SDS011;58858;50.948;6.566;2023-02-18T20:20:00;7.22;;;4.53;;
71162;SDS011;58858;50.948;6.566;2023-02-18T20:30:04;5.15;;;4.15;;
71162;SDS011;58858;50.948;6.566;2023-02-18T20:40:06;4.57;;;4.03;;
71162;SDS011;58858;50.948;6.566;2023-02-18T20:50:08;4.70;;;3.90;;
71162;SDS011;58858;50.948;6.566;2023-02-18T21:00:09;5.80;;;3.55;;
71162;SDS011;58858;50.948;6.566;2023-02-18T21:10:11;3.22;;;2.78;;
71162;SDS011;58858;50.948;6.566;2023-02-18T21:20:12;2.65;;;2.20;;
71162;SDS011;58858;50.948;6.566;2023-02-18T21:30:13;2.85;;;2.60;;
71162;SDS011;58858;50.948;6.566;2023-02-18T21:40:14;3.53;;;2.40;;
71162;SDS011;58858;50.948;6.566;2023-02-18T21:50:16;5.22;;;2.70;;
71162;SDS011;58858;50.948;6.566;2023-02-18T22:00:19;3.28;;;1.92;;
71162;SDS011;58858;50.948;6.566;2023-02-18T22:10:22;1.92;;;1.83;;
71162;SDS011;58858;50.948;6.566;2023-02-18T22:20:23;2.00;;;1.58;;
71162;SDS011;58858;50.948;6.566;2023-02-18T22:30:24;2.47;;;1.98;;
71162;SDS011;58858;50.948;6.566;2023-02-18T22:40:28;2.50;;;2.08;;
71162;SDS011;58858;50.948;6.566;2023-02-18T22:50:29;4.90;;;2.80;;
71162;SDS011;58858;50.948;6.566;2023-02-18T23:00:30;3.97;;;3.35;;
71162;SDS011;58858;50.948;6.566;2023-02-18T23:10:31;3.55;;;3.25;;
71162;SDS011;58858;50.948;6.566;2023-02-18T23:20:32;4.28;;;3.78;;
71162;SDS011;58858;50.948;6.566;2023-02-18T23:30:51;5.55;;;4.10;;
71162;SDS011;58858;50.948;6.566;2023-02-18T23:40:52;5.18;;;4.07;;
71162;SDS011;58858;50.948;6.566;2023-02-18T23:51:00;5.10;;;4.22;;
